Аэропорт
Мирный (UERR)

 UERR / MJZ
ЗЦ Хабаровск
Якутск (UEEE)
Якутск (UEEE)
 62.53470, 114.03900  / 1156 ft

 UERR 220600Z 15003MPS 9999 -SHSN SCT030CB M08/M11 Q1009 R25/490237 NOSIG RMK QFE726/0968
 TAF UERR 220200Z 2203/2303 VRB01MPS 9999 SCT020CB TEMPO 2203/2209 4000 -SHSN SCT007 BKN020CB
UERR_j_0220
показать схемы
Название сценария Тип сценария Flight Simulator 9 Flight Simulator X Prepar3D v2 Prepar3D v3 Prepar3D v4 Prepar3D v5 xPlane
UERR2013 X-plane бесплатный


2020 © VATRUS division (Privacy Policy)